createdAt,value
2018-05-11T00:00:20.230Z,100304.78
2018-05-11T00:02:49.435Z,100309.11
2018-05-11T00:05:19.516Z,100308.39
2018-05-11T00:07:49.498Z,100307.27
2018-05-11T00:10:18.897Z,100313.42
2018-05-11T00:12:48.138Z,100309.34
2018-05-11T00:15:18.134Z,100317.25
2018-05-11T00:17:48.129Z,100311.36
2018-05-11T00:20:18.125Z,100313.75
2018-05-11T00:22:47.347Z,100314.73
2018-05-11T00:25:16.595Z,100313.98
2018-05-11T00:27:45.812Z,100316.16
2018-05-11T00:30:15.042Z,100318.00
2018-05-11T00:32:45.801Z,100323.84
2018-05-11T00:35:15.876Z,100319.60
2018-05-11T00:37:45.093Z,100322.48
2018-05-11T00:40:16.481Z,100317.34
2018-05-11T00:42:46.454Z,100323.09
2018-05-11T00:45:15.724Z,100316.72
2018-05-11T00:47:45.015Z,100323.64
2018-05-11T00:50:14.974Z,100323.48
2018-05-11T00:52:44.206Z,100319.16
2018-05-11T00:55:31.397Z,100317.09
2018-05-11T00:58:00.629Z,100329.41
2018-05-11T01:00:29.845Z,100327.63
2018-05-11T01:02:59.100Z,100323.08
2018-05-11T01:05:29.167Z,100324.16
2018-05-11T01:07:58.440Z,100328.95
2018-05-11T01:10:28.105Z,100325.19
2018-05-11T01:12:57.376Z,100321.27
2018-05-11T01:15:26.592Z,100327.03
2018-05-11T01:17:55.858Z,100329.66
2018-05-11T01:20:25.140Z,100332.75
2018-05-11T01:22:54.398Z,100332.84
2018-05-11T01:25:23.701Z,100332.57
2018-05-11T01:27:52.985Z,100334.43
2018-05-11T01:30:22.221Z,100328.97
2018-05-11T01:32:52.224Z,100332.48
2018-05-11T01:35:21.637Z,100327.70
2018-05-11T01:37:51.618Z,100333.23
2018-05-11T01:40:20.870Z,100334.83
2018-05-11T01:42:50.119Z,100333.05
2018-05-11T01:45:19.459Z,100335.73
2018-05-11T01:47:49.443Z,100341.52
2018-05-11T01:50:18.925Z,100331.52
2018-05-11T01:52:49.029Z,100338.18
2018-05-11T01:55:18.310Z,100341.38
2018-05-11T01:57:47.507Z,100338.86
2018-05-11T02:00:16.874Z,100333.11
2018-05-11T02:02:46.887Z,100336.98
2018-05-11T02:05:16.102Z,100340.05
2018-05-11T02:07:46.316Z,100335.11
2018-05-11T02:10:16.290Z,100337.50
2018-05-11T02:12:45.549Z,100337.42
2018-05-11T02:15:15.529Z,100341.77
2018-05-11T02:17:44.829Z,100334.63
2018-05-11T02:20:14.920Z,100333.52
2018-05-11T02:22:44.150Z,100334.52
2018-05-11T02:25:13.433Z,100339.22
2018-05-11T02:27:42.661Z,100340.38
2018-05-11T02:30:12.732Z,100342.84
2018-05-11T02:32:41.988Z,100335.07
2018-05-11T02:35:11.174Z,100338.98
2018-05-11T02:37:40.442Z,100336.19
2018-05-11T02:40:09.648Z,100330.52
2018-05-11T02:42:38.894Z,100330.08
2018-05-11T02:45:08.132Z,100334.66
2018-05-11T02:47:37.362Z,100330.36
2018-05-11T02:50:07.340Z,100327.16
2018-05-11T02:52:36.551Z,100330.34
2018-05-11T02:55:05.810Z,100333.85
2018-05-11T02:57:35.031Z,100335.77
2018-05-11T03:00:04.271Z,100337.29
2018-05-11T03:02:33.466Z,100334.53
2018-05-11T03:05:03.489Z,100343.31
2018-05-11T03:07:32.662Z,100336.53
2018-05-11T03:10:01.877Z,100339.80
2018-05-11T03:12:31.841Z,100341.16
2018-05-11T03:15:01.141Z,100346.58
2018-05-11T03:17:31.888Z,100343.62
2018-05-11T03:20:01.167Z,100340.00
2018-05-11T03:22:30.374Z,100356.49
2018-05-11T03:24:59.918Z,100355.22
2018-05-11T03:27:29.185Z,100360.48
2018-05-11T03:29:58.410Z,100364.59
2018-05-11T03:32:27.666Z,100364.61
2018-05-11T03:34:57.671Z,100363.22
2018-05-11T03:37:27.044Z,100354.69
2018-05-11T03:39:57.569Z,100356.97
2018-05-11T03:42:26.802Z,100357.72
2018-05-11T03:44:56.013Z,100360.43
2018-05-11T03:47:25.229Z,100366.73
2018-05-11T03:49:54.474Z,100370.69
2018-05-11T03:52:24.513Z,100376.03
2018-05-11T03:54:53.739Z,100379.42
2018-05-11T03:57:22.957Z,100377.23
2018-05-11T03:59:52.252Z,100376.28
2018-05-11T04:16:00.109Z,100375.80
2018-05-11T04:18:29.342Z,100385.24
2018-05-11T04:20:58.568Z,100386.63
2018-05-11T04:23:27.831Z,100382.88
2018-05-11T04:25:57.853Z,100393.16
2018-05-11T04:28:27.119Z,100389.28
2018-05-11T04:30:56.324Z,100393.63
2018-05-11T04:33:25.573Z,100400.44
2018-05-11T04:35:55.554Z,100396.87
2018-05-11T04:38:24.796Z,100394.66
2018-05-11T04:40:54.040Z,100399.39
2018-05-11T04:43:24.094Z,100397.17
2018-05-11T04:45:54.098Z,100403.96
2018-05-11T04:48:24.097Z,100408.45
2018-05-11T04:50:53.402Z,100403.03
2018-05-11T04:53:22.718Z,100401.92
2018-05-11T04:55:52.756Z,100404.49
2018-05-11T04:58:22.059Z,100403.67
2018-05-11T05:00:52.109Z,100400.97
2018-05-11T05:03:22.331Z,100411.19
2018-05-11T05:05:51.784Z,100410.55
2018-05-11T05:08:21.803Z,100414.55
2018-05-11T05:10:51.035Z,100414.58
2018-05-11T05:13:20.274Z,100421.70
2018-05-11T05:15:49.525Z,100417.88
2018-05-11T05:18:18.861Z,100410.61
2018-05-11T05:20:48.134Z,100411.24
2018-05-11T05:23:17.369Z,100421.58
2018-05-11T05:25:46.680Z,100418.06
2018-05-11T05:28:15.896Z,100420.20
2018-05-11T05:30:45.885Z,100421.91
2018-05-11T05:33:15.202Z,100420.60
2018-05-11T05:35:44.337Z,100423.57
2018-05-11T05:38:13.600Z,100421.47
2018-05-11T05:40:42.890Z,100421.16
2018-05-11T05:43:12.877Z,100422.28
2018-05-11T05:45:42.120Z,100421.80
2018-05-11T05:48:12.147Z,100425.33
2018-05-11T05:50:42.184Z,100427.83
2018-05-11T05:53:11.525Z,100425.23
2018-05-11T05:55:40.761Z,100426.14
2018-05-11T05:58:09.991Z,100430.76
2018-05-11T06:00:40.101Z,100423.95
2018-05-11T06:03:09.527Z,100427.31
2018-05-11T06:05:38.773Z,100425.31
2018-05-11T06:08:08.120Z,100423.55
2018-05-11T06:10:37.250Z,100424.45
2018-05-11T06:13:06.482Z,100423.88
2018-05-11T06:15:35.795Z,100427.73
2018-05-11T06:18:04.933Z,100423.81
2018-05-11T06:20:34.449Z,100422.69
2018-05-11T06:23:04.480Z,100433.98
2018-05-11T06:25:34.669Z,100426.63
2018-05-11T06:28:03.899Z,100422.37
2018-05-11T06:30:33.885Z,100414.61
2018-05-11T06:33:03.116Z,100423.65
2018-05-11T06:35:32.352Z,100419.78
2018-05-11T06:38:01.598Z,100420.58
2018-05-11T06:40:31.056Z,100417.62
2018-05-11T06:43:00.255Z,100417.39
2018-05-11T06:45:29.468Z,100420.88
2018-05-11T06:47:58.697Z,100415.83
2018-05-11T06:50:27.940Z,100413.17
2018-05-11T06:52:57.181Z,100414.70
2018-05-11T06:55:26.400Z,100411.71
2018-05-11T06:57:56.418Z,100410.41
2018-05-11T07:00:25.708Z,100401.23
2018-05-11T07:02:54.989Z,100405.33
2018-05-11T07:05:24.230Z,100400.70
2018-05-11T07:07:53.459Z,100401.34
2018-05-11T07:10:22.743Z,100397.25
2018-05-11T07:12:51.954Z,100406.11
2018-05-11T07:15:21.192Z,100406.34
2018-05-11T07:17:50.510Z,100403.52
2018-05-11T07:20:19.744Z,100409.68
2018-05-11T07:22:49.056Z,100406.44
2018-05-11T07:25:18.302Z,100407.53
2018-05-11T07:27:47.657Z,100403.34
2018-05-11T07:30:16.941Z,100404.64
2018-05-11T07:32:46.146Z,100401.22
2018-05-11T07:35:15.473Z,100399.51
2018-05-11T07:37:44.699Z,100401.59
2018-05-11T07:40:14.789Z,100400.08
2018-05-11T07:42:44.057Z,100402.90
2018-05-11T07:45:13.391Z,100398.40
2018-05-11T07:47:42.610Z,100393.63
2018-05-11T07:50:12.641Z,100396.19
2018-05-11T07:52:41.981Z,100397.25
2018-05-11T07:55:11.210Z,100408.83
2018-05-11T07:57:40.469Z,100403.11
2018-05-11T08:00:09.698Z,100403.06
2018-05-11T08:02:38.933Z,100406.45
2018-05-11T08:05:08.153Z,100403.22
2018-05-11T08:07:37.547Z,100407.11
2018-05-11T08:10:06.753Z,100400.54
2018-05-11T08:12:36.037Z,100398.92
2018-05-11T08:15:05.271Z,100394.52
2018-05-11T08:17:34.539Z,100402.45
2018-05-11T08:20:03.747Z,100393.92
2018-05-11T08:22:32.994Z,100401.22
2018-05-11T08:25:02.241Z,100393.60
2018-05-11T08:27:31.650Z,100396.79
2018-05-11T08:30:00.863Z,100387.17
2018-05-11T08:32:30.146Z,100389.23
2018-05-11T08:34:59.342Z,100384.00
2018-05-11T08:37:28.602Z,100376.78
2018-05-11T08:39:58.605Z,100379.87
2018-05-11T08:42:28.654Z,100372.77
2018-05-11T08:44:57.884Z,100381.47
2018-05-11T08:47:27.107Z,100376.67
2018-05-11T08:49:57.162Z,100383.39
2018-05-11T08:52:26.380Z,100375.44
2018-05-11T08:54:55.677Z,100376.33
2018-05-11T08:57:24.908Z,100372.02
2018-05-11T08:59:54.136Z,100370.17
2018-05-11T09:02:24.146Z,100369.50
2018-05-11T09:04:53.501Z,100370.91
2018-05-11T09:07:23.557Z,100362.62
2018-05-11T09:09:52.816Z,100368.00
2018-05-11T09:12:22.019Z,100370.52
2018-05-11T09:14:51.286Z,100362.59
2018-05-11T09:17:20.524Z,100363.47
2018-05-11T09:19:49.746Z,100361.17
2018-05-11T09:22:19.009Z,100365.66
2018-05-11T09:24:48.258Z,100359.82
2018-05-11T09:27:18.261Z,100356.63
2018-05-11T09:29:54.531Z,100351.22
2018-05-11T09:32:24.318Z,100358.99
2018-05-11T09:34:53.593Z,100356.77
2018-05-11T09:37:22.838Z,100362.64
2018-05-11T09:39:54.097Z,100353.32
2018-05-11T09:42:23.338Z,100349.94
2018-05-11T09:44:52.553Z,100352.73
2018-05-11T09:47:21.787Z,100354.07
2018-05-11T09:49:51.061Z,100347.80
2018-05-11T09:52:26.487Z,100345.11
2018-05-11T09:54:55.772Z,100351.30
2018-05-11T09:57:24.936Z,100347.73
2018-05-11T09:59:54.166Z,100345.55
2018-05-11T10:02:23.396Z,100338.97
2018-05-11T10:04:52.602Z,100340.97
2018-05-11T10:07:21.841Z,100340.88
2018-05-11T10:09:51.063Z,100336.23
2018-05-11T10:12:20.300Z,100330.20
2018-05-11T10:14:49.615Z,100337.12
2018-05-11T10:17:19.631Z,100330.00
2018-05-11T10:19:49.634Z,100326.22
2018-05-11T10:22:19.602Z,100326.32
2018-05-11T10:24:48.962Z,100333.92
2018-05-11T10:27:18.998Z,100329.55
2018-05-11T10:29:48.304Z,100323.66
2018-05-11T10:32:17.526Z,100317.59
2018-05-11T10:34:46.788Z,100319.25
2018-05-11T10:37:16.006Z,100319.83
2018-05-11T10:39:45.356Z,100311.14
2018-05-11T10:42:14.498Z,100314.16
2018-05-11T10:44:43.789Z,100313.31
2018-05-11T10:47:13.013Z,100310.46
2018-05-11T10:49:42.211Z,100300.08
2018-05-11T10:52:11.464Z,100298.95
2018-05-11T10:54:41.462Z,100300.02
2018-05-11T10:57:11.506Z,100298.19
2018-05-11T10:59:40.754Z,100288.85
2018-05-11T11:02:10.013Z,100285.93
2018-05-11T11:04:39.229Z,100287.38
2018-05-11T11:07:08.487Z,100279.11
2018-05-11T11:09:38.504Z,100275.75
2018-05-11T11:12:08.498Z,100287.31
2018-05-11T11:14:38.505Z,100282.38
2018-05-11T11:17:07.931Z,100285.70
2018-05-11T11:19:37.931Z,100288.28
2018-05-11T11:22:07.199Z,100282.80
2018-05-11T11:24:36.412Z,100277.92
2018-05-11T11:27:05.689Z,100270.00
2018-05-11T11:29:34.918Z,100263.80
2018-05-11T11:32:04.189Z,100262.53
2018-05-11T11:34:34.257Z,100259.41
2018-05-11T11:37:03.507Z,100267.22
2018-05-11T11:39:32.716Z,100264.03
2018-05-11T11:42:02.017Z,100259.36
2018-05-11T11:44:31.189Z,100253.81
2018-05-11T11:47:00.439Z,100252.81
2018-05-11T11:49:29.677Z,100240.47
2018-05-11T11:51:58.918Z,100238.67
2018-05-11T11:54:28.333Z,100230.42
2018-05-11T11:56:58.333Z,100237.16
2018-05-11T11:59:27.816Z,100235.77
2018-05-11T12:01:57.139Z,100226.47
2018-05-11T12:04:26.310Z,100225.61
2018-05-11T12:06:55.545Z,100220.66
2018-05-11T12:09:24.792Z,100220.13
2018-05-11T12:11:54.069Z,100219.16
2018-05-11T12:14:23.380Z,100213.03
2018-05-11T12:16:52.602Z,100205.69
2018-05-11T12:19:21.868Z,100202.77
2018-05-11T12:21:51.753Z,100203.61
2018-05-11T12:24:21.951Z,100215.34
2018-05-11T12:26:51.191Z,100207.97
2018-05-11T12:29:21.294Z,100201.49
2018-05-11T12:31:50.522Z,100195.86
2018-05-11T12:34:19.821Z,100195.59
2018-05-11T12:36:49.917Z,100193.83
2018-05-11T12:39:19.959Z,100195.08
2018-05-11T12:41:49.158Z,100197.36
2018-05-11T12:44:18.432Z,100191.36
2018-05-11T12:46:47.847Z,100189.50
2018-05-11T12:49:17.812Z,100184.50
2018-05-11T12:51:47.093Z,100185.59
2018-05-11T12:54:16.386Z,100176.14
2018-05-11T12:56:45.682Z,100182.55
2018-05-11T12:59:14.916Z,100179.53
2018-05-11T13:01:44.179Z,100178.80
2018-05-11T13:04:13.424Z,100173.59
2018-05-11T13:06:42.666Z,100172.14
2018-05-11T13:09:11.970Z,100174.84
2018-05-11T13:11:41.237Z,100170.52
2018-05-11T13:14:11.237Z,100170.12
2018-05-11T13:16:40.463Z,100167.84
2018-05-11T13:19:10.535Z,100179.56
2018-05-11T13:21:39.891Z,100169.19
2018-05-11T13:24:10.041Z,100165.47
2018-05-11T13:26:39.289Z,100161.25
2018-05-11T13:29:09.281Z,100163.41
2018-05-11T13:31:38.517Z,100151.00
2018-05-11T13:34:07.886Z,100149.89
2018-05-11T13:36:37.123Z,100144.15
2018-05-11T13:39:07.098Z,100143.75
2018-05-11T13:41:37.114Z,100141.32
2018-05-11T13:44:06.363Z,100142.55
2018-05-11T13:46:35.643Z,100148.33
2018-05-11T13:49:05.659Z,100138.08
2018-05-11T13:51:35.645Z,100145.53
2018-05-11T13:54:04.909Z,100150.26
2018-05-11T13:56:34.250Z,100144.73
2018-05-11T13:59:04.173Z,100141.91
2018-05-11T14:01:34.202Z,100131.00
2018-05-11T14:04:05.031Z,100133.78
2018-05-11T14:06:35.133Z,100135.44
2018-05-11T14:09:05.887Z,100132.37
2018-05-11T14:11:35.390Z,100128.63
2018-05-11T14:14:05.320Z,100127.41
2018-05-11T14:16:35.299Z,100131.11
2018-05-11T14:19:04.575Z,100125.53
2018-05-11T14:21:33.816Z,100111.66
2018-05-11T14:24:04.165Z,100119.52
2018-05-11T14:26:33.401Z,100115.20
2018-05-11T14:29:02.623Z,100109.39
2018-05-11T14:31:31.853Z,100113.20
2018-05-11T14:34:01.089Z,100110.30
2018-05-11T14:36:30.311Z,100107.14
2018-05-11T14:39:00.379Z,100110.17
2018-05-11T14:41:29.630Z,100107.30
2018-05-11T14:43:58.838Z,100094.35
2018-05-11T14:46:28.879Z,100101.12
2018-05-11T14:48:58.174Z,100097.66
2018-05-11T14:51:27.523Z,100092.42
2018-05-11T14:53:56.648Z,100094.70
2018-05-11T14:56:25.951Z,100090.56
2018-05-11T14:58:55.954Z,100088.44
2018-05-11T15:01:25.194Z,100084.67
2018-05-11T15:03:54.433Z,100082.98
2018-05-11T15:06:23.693Z,100078.41
2018-05-11T15:08:53.693Z,100081.45
2018-05-11T15:11:23.019Z,100073.25
2018-05-11T15:13:52.241Z,100075.20
2018-05-11T15:16:21.470Z,100076.81
2018-05-11T15:18:50.717Z,100069.67
2018-05-11T15:21:19.965Z,100068.71
2018-05-11T15:23:49.198Z,100065.03
2018-05-11T15:26:18.451Z,100066.36
2018-05-11T15:28:47.675Z,100070.32
2018-05-11T15:31:16.979Z,100063.57
2018-05-11T15:33:46.205Z,100061.69
2018-05-11T15:36:15.460Z,100056.46
2018-05-11T15:38:45.478Z,100058.20
2018-05-11T15:41:15.497Z,100060.87
2018-05-11T15:43:44.798Z,100053.34
2018-05-11T15:46:14.771Z,100049.62
2018-05-11T15:48:44.801Z,100044.76
2018-05-11T15:51:14.050Z,100043.48
2018-05-11T15:53:43.549Z,100048.81
2018-05-11T15:56:12.760Z,100046.16
2018-05-11T15:58:42.122Z,100038.20
2018-05-11T16:01:12.117Z,100038.89
2018-05-11T16:03:41.396Z,100032.80
2018-05-11T16:06:10.625Z,100033.05
2018-05-11T16:08:39.965Z,100027.16
2018-05-11T16:11:09.947Z,100023.50
2018-05-11T16:13:40.088Z,100029.63
2018-05-11T16:16:10.101Z,100026.69
2018-05-11T16:18:40.127Z,100029.97
2018-05-11T16:21:09.365Z,100029.77
2018-05-11T16:23:38.593Z,100018.33
2018-05-11T16:26:07.839Z,100026.58
2018-05-11T16:28:37.071Z,100021.67
2018-05-11T16:31:06.320Z,100014.77
2018-05-11T16:33:36.379Z,100019.94
2018-05-11T16:36:05.637Z,100011.91
2018-05-11T16:38:34.885Z,100022.52
2018-05-11T16:41:04.144Z,100010.52
2018-05-11T16:43:33.383Z,100014.25
2018-05-11T16:46:02.979Z,100009.34
2018-05-11T16:48:32.547Z,100010.12
2018-05-11T16:51:01.893Z,100007.75
2018-05-11T16:53:31.039Z,100006.05
2018-05-11T16:56:00.256Z,100007.61
2018-05-11T16:58:29.543Z,100010.52
2018-05-11T17:00:58.774Z,100006.67
2018-05-11T17:03:28.004Z,100014.38
2018-05-11T17:05:57.250Z,100002.23
2018-05-11T17:08:26.465Z,100004.41
2018-05-11T17:10:55.702Z,100005.77
2018-05-11T17:13:26.180Z,100008.39
2018-05-11T17:15:55.404Z,100006.67
2018-05-11T17:18:28.522Z,100007.41
2018-05-11T17:20:58.530Z,100007.67
2018-05-11T17:23:28.522Z,100010.52
2018-05-11T17:25:57.731Z,100003.77
2018-05-11T17:28:26.987Z,100006.05
2018-05-11T17:30:56.244Z,99999.31
2018-05-11T17:33:25.454Z,100005.60
2018-05-11T17:35:55.486Z,100001.07
2018-05-11T17:38:24.758Z,99995.16
2018-05-11T17:40:54.733Z,99998.78
2018-05-11T17:43:24.037Z,99995.64
2018-05-11T17:45:53.288Z,100003.09
2018-05-11T17:48:22.513Z,99999.78
2018-05-11T17:50:51.750Z,99999.17
2018-05-11T17:53:20.971Z,99997.33
2018-05-11T17:55:50.970Z,99997.47
2018-05-11T17:58:20.266Z,100002.47
2018-05-11T18:00:49.538Z,99993.95
2018-05-11T18:03:18.801Z,99998.84
2018-05-11T18:05:48.099Z,99997.80
2018-05-11T18:08:18.232Z,99998.98
2018-05-11T18:10:47.525Z,99998.20
2018-05-11T18:13:17.512Z,99998.20
2018-05-11T18:18:28.118Z,100001.96
2018-05-11T18:21:06.248Z,99998.80
2018-05-11T18:23:38.410Z,99993.44
2018-05-11T18:26:07.658Z,99993.56
2018-05-11T18:28:36.860Z,99992.18
2018-05-11T18:31:06.135Z,99990.41
2018-05-11T18:33:35.353Z,99992.49
2018-05-11T18:36:04.602Z,99991.89
2018-05-11T18:38:33.903Z,99989.91
2018-05-11T18:41:07.720Z,99986.28
2018-05-11T18:43:37.125Z,99981.76
2018-05-11T18:46:06.604Z,99989.55
2018-05-11T18:48:35.799Z,99989.92
2018-05-11T18:51:05.065Z,99981.31
2018-05-11T18:53:35.297Z,99983.27
2018-05-11T18:56:04.386Z,99988.36
2018-05-11T18:58:34.712Z,99985.43
2018-05-11T19:01:04.786Z,99989.52
2018-05-11T19:03:34.019Z,99991.66
2018-05-11T19:06:04.056Z,99983.63
2018-05-11T19:08:34.054Z,99987.78
2018-05-11T19:11:04.076Z,99985.74
2018-05-11T19:13:34.096Z,99992.28
2018-05-11T19:16:04.079Z,99990.72
2018-05-11T19:18:33.309Z,99997.15
2018-05-11T19:21:03.357Z,99998.34
2018-05-11T19:23:32.713Z,100004.75
2018-05-11T19:26:01.935Z,100005.51
2018-05-11T19:28:32.075Z,100004.95
2018-05-11T19:31:01.555Z,100005.03
2018-05-11T19:33:30.779Z,100007.60
2018-05-11T19:36:00.109Z,100008.05
2018-05-11T19:38:29.339Z,100011.58
2018-05-11T19:40:59.351Z,100008.58
2018-05-11T19:43:29.374Z,100011.08
2018-05-11T19:45:59.415Z,100011.80
2018-05-11T19:48:28.840Z,100013.06
2018-05-11T19:50:58.078Z,100015.63
2018-05-11T19:53:28.172Z,100018.17
2018-05-11T19:55:57.674Z,100020.14
2018-05-11T19:58:27.042Z,100016.78
2018-05-11T20:00:56.354Z,100020.83
2018-05-11T20:03:25.771Z,100018.46
2018-05-11T20:05:55.049Z,100021.38
2018-05-11T20:08:24.379Z,100022.58
2018-05-11T20:10:53.755Z,100021.20
2018-05-11T20:13:22.926Z,100026.11
2018-05-11T20:15:52.195Z,100020.50
2018-05-11T20:18:22.348Z,100020.88
2018-05-11T20:20:51.500Z,100023.82
2018-05-11T20:23:20.867Z,100031.66
2018-05-11T20:25:50.192Z,100032.38
2018-05-11T20:28:19.428Z,100023.73
2018-05-11T20:30:50.449Z,100027.66
2018-05-11T20:33:19.883Z,100026.27
2018-05-11T20:35:49.848Z,100025.08
2018-05-11T20:38:19.160Z,100022.13
2018-05-11T20:40:48.401Z,100020.20
2018-05-11T20:43:17.629Z,100021.34
2018-05-11T20:45:46.903Z,100022.06
2018-05-11T20:48:16.154Z,100020.67
2018-05-11T20:50:45.380Z,100015.37
2018-05-11T20:53:15.382Z,100016.77
2018-05-11T20:55:45.391Z,100020.06
2018-05-11T20:58:15.408Z,100021.05
2018-05-11T21:00:44.706Z,100027.48
2018-05-11T21:03:14.792Z,100029.34
2018-05-11T21:05:44.014Z,100035.02
2018-05-11T21:08:13.218Z,100026.59
2018-05-11T21:10:42.680Z,100031.11
2018-05-11T21:13:11.940Z,100020.13
2018-05-11T21:15:41.921Z,100024.04
2018-05-11T21:18:11.192Z,100020.53
2018-05-11T21:20:40.467Z,100017.18
2018-05-11T21:23:09.753Z,100019.06
2018-05-11T21:25:39.725Z,100015.03
2018-05-11T21:28:09.005Z,100019.52
2018-05-11T21:30:38.395Z,100018.50
2018-05-11T21:33:07.631Z,100015.33
2018-05-11T21:35:37.092Z,100020.13
2018-05-11T21:38:06.427Z,100014.23
2018-05-11T21:40:35.689Z,100009.64
2018-05-11T21:43:05.653Z,100014.66
2018-05-11T21:45:34.920Z,100011.66
2018-05-11T21:48:06.455Z,100010.81
2018-05-11T21:50:36.340Z,100021.09
2018-05-11T21:53:05.516Z,100019.85
2018-05-11T21:55:36.657Z,100012.79
2018-05-11T21:58:06.905Z,100017.25
2018-05-11T22:00:37.057Z,100009.55
2018-05-11T22:03:06.296Z,100007.15
2018-05-11T22:05:35.522Z,100005.52
2018-05-11T22:08:05.260Z,100007.41
2018-05-11T22:10:34.533Z,99998.34
2018-05-11T22:13:03.789Z,99998.68
2018-05-11T22:15:33.113Z,99994.67
2018-05-11T22:18:03.096Z,99999.70
2018-05-11T22:20:32.389Z,99998.30
2018-05-11T22:23:01.599Z,100002.30
2018-05-11T22:25:30.938Z,99997.19
2018-05-11T22:28:00.988Z,100003.77
2018-05-11T22:30:30.222Z,100002.74
2018-05-11T22:32:59.494Z,99997.02
2018-05-11T22:35:29.153Z,99990.14
2018-05-11T22:37:58.541Z,99994.98
2018-05-11T22:40:29.289Z,99990.19
2018-05-11T22:42:59.399Z,99984.09
2018-05-11T22:45:29.449Z,99994.91
2018-05-11T22:47:58.886Z,99995.21
2018-05-11T22:50:28.164Z,99990.71
2018-05-11T22:52:57.423Z,99994.55
2018-05-11T22:55:26.653Z,99990.34
2018-05-11T22:57:55.938Z,99989.31
2018-05-11T23:00:40.955Z,99987.91
2018-05-11T23:03:10.165Z,99988.61
2018-05-11T23:05:39.658Z,99986.12
2018-05-11T23:08:08.918Z,99982.20
2018-05-11T23:10:38.163Z,99983.34
2018-05-11T23:26:08.189Z,99978.03
2018-05-11T23:28:38.154Z,99981.81
2018-05-11T23:31:07.386Z,99978.69
2018-05-11T23:33:37.391Z,99973.70
2018-05-11T23:36:06.621Z,99977.57
2018-05-11T23:38:36.591Z,99985.51
2018-05-11T23:41:05.850Z,99979.40
2018-05-11T23:43:35.098Z,99975.90
2018-05-11T23:46:04.491Z,99976.11
2018-05-11T23:48:33.721Z,99976.69
2018-05-11T23:51:03.711Z,99968.84
2018-05-11T23:53:33.039Z,99965.34
2018-05-11T23:56:02.253Z,99969.81
2018-05-11T23:58:32.292Z,99971.34
